createdAt,value
2019-04-05T00:01:09.102Z,16.03
2019-04-05T00:03:40.593Z,19.40
2019-04-05T00:06:09.127Z,18.80
2019-04-05T00:08:37.710Z,19.07
2019-04-05T00:11:06.400Z,19.13
2019-04-05T00:13:35.057Z,19.70
2019-04-05T00:16:03.680Z,21.20
2019-04-05T00:18:32.299Z,21.67
2019-04-05T00:21:00.872Z,24.43
2019-04-05T00:23:29.457Z,22.40
2019-04-05T00:25:58.037Z,21.20
2019-04-05T00:28:26.548Z,21.37
2019-04-05T00:30:55.186Z,22.00
2019-04-05T00:33:23.732Z,22.47
2019-04-05T00:35:52.306Z,22.23
2019-04-05T00:38:20.852Z,23.97
2019-04-05T00:40:49.358Z,22.27
2019-04-05T00:43:17.896Z,19.80
2019-04-05T00:45:46.708Z,20.83
2019-04-05T00:48:15.324Z,20.20
2019-04-05T00:50:43.890Z,18.93
2019-04-05T00:53:12.428Z,18.63
2019-04-05T00:55:41.081Z,18.93
2019-04-05T00:58:09.705Z,18.60
2019-04-05T01:00:38.345Z,18.37
2019-04-05T01:03:08.178Z,18.93
2019-04-05T01:05:37.587Z,20.50
2019-04-05T01:08:14.188Z,18.83
2019-04-05T01:10:43.566Z,18.73
2019-04-05T01:13:19.647Z,19.67
2019-04-05T01:15:49.820Z,19.43
2019-04-05T01:18:20.166Z,19.07
2019-04-05T01:20:49.878Z,20.23
2019-04-05T01:23:18.594Z,19.47
2019-04-05T01:25:47.311Z,20.37
2019-04-05T01:28:17.623Z,20.67
2019-04-05T01:30:46.267Z,19.90
2019-04-05T01:33:15.152Z,19.30
2019-04-05T01:35:43.801Z,21.33
2019-04-05T01:38:12.589Z,20.90
2019-04-05T01:40:43.339Z,21.37
2019-04-05T01:43:12.139Z,21.03
2019-04-05T01:45:52.712Z,21.63
2019-04-05T01:48:11.260Z,21.87
2019-04-05T01:50:39.824Z,21.07
2019-04-05T01:53:08.435Z,22.50
2019-04-05T01:55:37.145Z,23.40
2019-04-05T01:58:05.717Z,21.93
2019-04-05T02:00:34.356Z,23.57
2019-04-05T02:03:02.833Z,22.40
2019-04-05T02:05:31.473Z,21.40
2019-04-05T02:08:00.092Z,23.23
2019-04-05T02:10:28.801Z,23.43
2019-04-05T02:12:57.428Z,23.23
2019-04-05T02:15:28.660Z,22.93
2019-04-05T02:17:57.780Z,22.00
2019-04-05T02:20:26.636Z,23.50
2019-04-05T02:22:55.376Z,22.37
2019-04-05T02:25:24.202Z,22.53
2019-04-05T02:27:52.832Z,22.37
2019-04-05T02:30:27.524Z,20.63
2019-04-05T02:33:00.572Z,21.37
2019-04-05T02:35:29.489Z,19.20
2019-04-05T02:38:05.726Z,21.67
2019-04-05T02:43:43.121Z,21.03
2019-04-05T02:46:23.377Z,22.30
2019-04-05T02:48:54.316Z,21.17
2019-04-05T02:51:29.657Z,21.47
2019-04-05T02:54:02.965Z,20.97
2019-04-05T02:56:37.172Z,20.30
2019-04-05T02:59:10.361Z,21.03
2019-04-05T03:01:45.417Z,20.43
2019-04-05T03:04:20.373Z,21.10
2019-04-05T03:18:05.746Z,20.00
2019-04-05T03:20:37.569Z,21.30
2019-04-05T03:23:08.129Z,19.10
2019-04-05T03:25:48.270Z,20.57
2019-04-05T03:28:19.923Z,19.60
2019-04-05T03:30:52.265Z,20.37
2019-04-05T03:33:22.501Z,21.30
2019-04-05T03:35:51.046Z,20.60
2019-04-05T03:38:20.467Z,19.83
2019-04-05T03:40:49.362Z,20.97
2019-04-05T03:43:18.133Z,22.13
2019-04-05T03:45:46.712Z,21.17
2019-04-05T03:48:15.355Z,20.17
2019-04-05T03:50:45.244Z,21.27
2019-04-05T03:53:14.204Z,22.27
2019-04-05T03:55:42.921Z,20.63
2019-04-05T03:58:11.515Z,22.03
2019-04-05T04:00:40.078Z,21.10
2019-04-05T04:03:09.399Z,20.73
2019-04-05T04:05:38.009Z,20.63
2019-04-05T04:08:06.772Z,20.13
2019-04-05T04:10:35.693Z,21.20
2019-04-05T04:13:04.906Z,21.13
2019-04-05T04:15:34.001Z,21.77
2019-04-05T04:18:03.510Z,20.57
2019-04-05T04:20:40.826Z,20.80
2019-04-05T04:23:10.445Z,23.33
2019-04-05T04:25:40.436Z,22.10
2019-04-05T04:28:10.061Z,22.53
2019-04-05T04:30:38.952Z,23.00
2019-04-05T04:33:21.043Z,22.13
2019-04-05T04:35:50.717Z,21.73
2019-04-05T04:38:19.512Z,21.73
2019-04-05T04:40:54.100Z,21.67
2019-04-05T04:43:26.051Z,21.13
2019-04-05T04:46:00.014Z,21.07
2019-04-05T04:48:30.209Z,21.10
2019-04-05T04:51:00.563Z,20.50
2019-04-05T04:53:30.753Z,20.83
2019-04-05T04:56:00.953Z,22.37
2019-04-05T04:58:30.202Z,21.43
2019-04-05T05:00:59.987Z,20.90
2019-04-05T05:03:28.757Z,21.70
2019-04-05T05:06:02.161Z,20.23
2019-04-05T05:08:33.054Z,21.00
2019-04-05T05:11:14.036Z,20.20
2019-04-05T05:13:36.676Z,21.37
2019-04-05T05:16:07.977Z,21.57
2019-04-05T05:18:38.100Z,20.70
2019-04-05T05:21:12.882Z,21.80
2019-04-05T05:23:49.350Z,23.30
2019-04-05T05:26:24.960Z,23.50
2019-04-05T05:28:55.214Z,25.60
2019-04-05T05:31:25.600Z,23.63
2019-04-05T05:33:55.778Z,24.13
2019-04-05T05:36:27.754Z,22.73
2019-04-05T05:39:01.049Z,24.80
2019-04-05T05:41:29.878Z,22.60
2019-04-05T05:44:00.169Z,22.13
2019-04-05T05:46:35.300Z,21.17
2019-04-05T05:49:04.051Z,22.83
2019-04-05T05:51:37.117Z,21.67
2019-04-05T05:56:56.857Z,23.40
2019-04-05T05:59:27.746Z,24.17
2019-04-05T06:01:57.925Z,23.67
2019-04-05T06:04:26.569Z,25.77
2019-04-05T06:06:55.281Z,24.60
2019-04-05T06:09:25.938Z,24.77
2019-04-05T06:11:59.029Z,25.90
2019-04-05T06:14:27.750Z,24.23
2019-04-05T06:16:56.504Z,24.33
2019-04-05T06:19:26.833Z,24.30
2019-04-05T06:21:58.311Z,24.00
2019-04-05T06:27:24.387Z,23.47
2019-04-05T06:29:57.664Z,24.60
2019-04-05T06:32:26.296Z,24.70
2019-04-05T06:34:59.685Z,23.63
2019-04-05T06:37:29.375Z,25.43
2019-04-05T06:39:58.087Z,25.60
2019-04-05T06:42:28.259Z,25.23
2019-04-05T06:44:56.894Z,25.03
2019-04-05T06:47:25.632Z,24.47
2019-04-05T06:49:54.292Z,24.90
2019-04-05T06:52:22.859Z,23.83
2019-04-05T06:54:51.446Z,24.43
2019-04-05T06:57:20.048Z,23.73
2019-04-05T06:59:48.628Z,23.47
2019-04-05T07:02:18.560Z,22.33
2019-04-05T07:04:47.231Z,24.03
2019-04-05T07:07:17.900Z,22.90
2019-04-05T07:09:47.585Z,23.87
2019-04-05T07:12:16.164Z,25.00
2019-04-05T07:14:44.718Z,24.37
2019-04-05T07:17:13.294Z,25.13
2019-04-05T07:19:41.833Z,23.90
2019-04-05T07:22:10.461Z,24.27
2019-04-05T07:24:38.937Z,23.23
2019-04-05T07:27:07.564Z,23.30
2019-04-05T07:29:36.113Z,23.57
2019-04-05T07:32:04.917Z,23.13
2019-04-05T07:34:33.466Z,23.77
2019-04-05T07:37:02.044Z,24.77
2019-04-05T07:39:30.599Z,24.93
2019-04-05T07:41:59.334Z,24.17
2019-04-05T07:44:27.879Z,24.03
2019-04-05T07:46:56.442Z,24.10
2019-04-05T07:49:24.980Z,23.87
2019-04-05T07:51:53.561Z,23.97
2019-04-05T07:54:22.109Z,21.93
2019-04-05T07:56:50.657Z,22.63
2019-04-05T07:59:20.884Z,23.10
2019-04-05T08:01:49.404Z,23.67
2019-04-05T08:04:17.905Z,22.37
2019-04-05T08:06:49.008Z,22.47
2019-04-05T08:09:19.341Z,22.67
2019-04-05T08:11:48.416Z,22.40
2019-04-05T08:14:18.078Z,22.07
2019-04-05T08:16:46.996Z,22.77
2019-04-05T08:19:15.612Z,24.07
2019-04-05T08:21:44.152Z,22.33
2019-04-05T08:24:12.722Z,22.70
2019-04-05T08:26:41.332Z,22.70
2019-04-05T08:29:09.965Z,23.57
2019-04-05T08:31:38.433Z,22.40
2019-04-05T08:34:06.933Z,24.00
2019-04-05T08:36:35.484Z,24.27
2019-04-05T08:39:06.672Z,22.37
2019-04-05T08:41:35.288Z,23.40
2019-04-05T08:44:04.529Z,21.37
2019-04-05T08:46:33.345Z,21.17
2019-04-05T08:49:10.626Z,21.67
2019-04-05T08:51:32.028Z,22.63
2019-04-05T08:54:00.592Z,21.67
2019-04-05T08:56:29.142Z,21.17
2019-04-05T08:58:57.711Z,21.30
2019-04-05T09:01:26.257Z,21.53
2019-04-05T09:03:54.753Z,18.93
2019-04-05T09:06:23.305Z,20.50
2019-04-05T09:08:51.988Z,19.90
2019-04-05T09:11:20.538Z,19.63
2019-04-05T09:13:49.194Z,20.77
2019-04-05T09:16:17.741Z,20.73
2019-04-05T09:18:49.214Z,20.13
2019-04-05T09:21:17.908Z,14.63
2019-04-05T09:23:46.511Z,14.47
2019-04-05T09:26:15.061Z,13.43
2019-04-05T09:28:43.628Z,12.30
2019-04-05T09:31:12.250Z,14.67
2019-04-05T09:33:40.733Z,11.57
2019-04-05T09:36:09.388Z,12.37
2019-04-05T09:38:38.009Z,15.67
2019-04-05T09:41:06.655Z,13.83
2019-04-05T09:43:35.217Z,15.63
2019-04-05T09:46:03.925Z,15.43
2019-04-05T09:48:32.476Z,15.10
2019-04-05T09:51:01.203Z,12.87
2019-04-05T09:53:29.753Z,13.20
2019-04-05T09:55:58.256Z,13.37
2019-04-05T09:58:26.796Z,13.97
2019-04-05T10:00:55.360Z,13.57
2019-04-05T10:03:23.846Z,13.83
2019-04-05T10:05:52.414Z,13.00
2019-04-05T10:08:20.936Z,15.47
2019-04-05T10:10:49.582Z,12.07
2019-04-05T10:13:18.118Z,13.67
2019-04-05T10:15:46.606Z,13.80
2019-04-05T10:18:15.150Z,15.83
2019-04-05T10:20:43.641Z,14.23
2019-04-05T10:23:12.117Z,13.63
2019-04-05T10:25:43.652Z,13.10
2019-04-05T10:28:10.877Z,11.57
2019-04-05T10:30:39.368Z,12.53
2019-04-05T10:33:07.838Z,13.87
2019-04-05T10:35:36.343Z,13.20
2019-04-05T10:38:05.770Z,12.67
2019-04-05T10:40:34.331Z,11.13
2019-04-05T10:43:02.869Z,11.00
2019-04-05T10:45:31.659Z,11.57
2019-04-05T10:48:00.183Z,9.87
2019-04-05T10:50:28.813Z,8.73
2019-04-05T10:52:57.285Z,8.47
2019-04-05T10:55:25.853Z,8.40
2019-04-05T10:57:54.407Z,6.97
2019-04-05T11:00:23.399Z,7.20
2019-04-05T11:02:51.925Z,6.53
2019-04-05T11:05:20.454Z,6.87
2019-04-05T11:07:49.011Z,7.50
2019-04-05T11:10:17.817Z,6.73
2019-04-05T11:12:46.296Z,6.10
2019-04-05T11:15:15.321Z,6.20
2019-04-05T11:17:43.864Z,6.57
2019-04-05T11:20:21.172Z,6.20
2019-04-05T11:22:46.686Z,6.27
2019-04-05T11:25:14.912Z,7.30
2019-04-05T11:27:43.412Z,7.27
2019-04-05T11:30:12.801Z,7.17
2019-04-05T11:32:41.651Z,6.60
2019-04-05T11:35:11.048Z,7.43
2019-04-05T11:37:40.214Z,8.37
2019-04-05T11:40:09.648Z,8.03
2019-04-05T11:42:38.844Z,7.73
2019-04-05T11:45:09.297Z,8.53
2019-04-05T11:47:38.720Z,9.00
2019-04-05T11:50:10.030Z,8.03
2019-04-05T11:52:38.656Z,8.33
2019-04-05T11:55:07.839Z,9.07
2019-04-05T11:57:36.408Z,10.10
2019-04-05T12:00:30.747Z,9.77
2019-04-05T12:03:00.871Z,9.17
2019-04-05T12:05:29.341Z,10.70
2019-04-05T12:08:01.017Z,9.43
2019-04-05T12:10:28.106Z,8.83
2019-04-05T12:12:56.985Z,8.90
2019-04-05T12:15:25.517Z,9.37
2019-04-05T12:17:54.086Z,9.20
2019-04-05T12:20:22.688Z,9.03
2019-04-05T12:22:52.616Z,9.70
2019-04-05T12:25:21.209Z,10.03
2019-04-05T12:27:49.706Z,10.90
2019-04-05T12:30:20.040Z,8.73
2019-04-05T12:32:48.908Z,9.07
2019-04-05T12:35:21.362Z,9.37
2019-04-05T12:37:50.520Z,9.63
2019-04-05T12:40:18.441Z,10.00
2019-04-05T12:42:46.932Z,11.17
2019-04-05T12:45:16.113Z,11.47
2019-04-05T12:47:45.694Z,12.43
2019-04-05T12:50:15.454Z,11.47
2019-04-05T12:52:44.028Z,11.80
2019-04-05T12:55:13.014Z,12.50
2019-04-05T12:57:41.586Z,14.13
2019-04-05T13:00:14.148Z,14.03
2019-04-05T13:02:43.159Z,13.07
2019-04-05T13:05:11.864Z,13.10
2019-04-05T13:07:40.372Z,13.93
2019-04-05T13:10:09.162Z,13.53
2019-04-05T13:12:37.725Z,14.07
2019-04-05T13:15:13.731Z,16.10
2019-04-05T13:17:37.090Z,14.67
2019-04-05T13:20:07.800Z,14.40
2019-04-05T13:22:36.343Z,14.10
2019-04-05T13:25:10.862Z,14.13
2019-04-05T13:27:37.241Z,15.70
2019-04-05T13:30:07.643Z,15.80
2019-04-05T13:32:36.114Z,15.93
2019-04-05T13:35:06.024Z,16.63
2019-04-05T13:37:34.494Z,17.20
2019-04-05T13:40:06.180Z,16.50
2019-04-05T13:42:35.415Z,17.93
2019-04-05T13:45:05.642Z,18.40
2019-04-05T13:47:37.696Z,17.57
2019-04-05T13:50:05.872Z,18.73
2019-04-05T13:52:34.345Z,18.53
2019-04-05T13:55:03.171Z,18.33
2019-04-05T13:57:32.039Z,19.07
2019-04-05T14:00:03.323Z,16.63
2019-04-05T14:02:31.965Z,18.37
2019-04-05T14:05:00.510Z,19.00
2019-04-05T14:07:29.078Z,18.17
2019-04-05T14:09:57.619Z,18.63
2019-04-05T14:12:26.090Z,19.00
2019-04-05T14:14:54.662Z,20.20
2019-04-05T14:17:23.204Z,20.10
2019-04-05T14:19:51.709Z,20.53
2019-04-05T14:22:22.257Z,20.53
2019-04-05T14:24:52.934Z,20.53
2019-04-05T14:27:20.661Z,22.43
2019-04-05T14:29:49.234Z,21.07
2019-04-05T14:32:21.097Z,21.20
2019-04-05T14:34:48.089Z,24.03
2019-04-05T14:37:16.561Z,22.00
2019-04-05T14:39:45.056Z,23.13
2019-04-05T14:42:15.683Z,23.23
2019-04-05T14:44:44.402Z,22.93
2019-04-05T14:47:12.914Z,23.30
2019-04-05T14:49:41.543Z,23.83
2019-04-05T14:52:10.154Z,22.53
2019-04-05T14:54:38.649Z,22.00
2019-04-05T14:57:07.202Z,24.30
2019-04-05T14:59:35.675Z,23.47
2019-04-05T15:02:04.492Z,24.07
2019-04-05T15:04:33.017Z,23.13
2019-04-05T15:07:01.578Z,23.83
2019-04-05T15:09:30.120Z,24.27
2019-04-05T15:11:59.258Z,25.63
2019-04-05T15:14:27.764Z,24.93
2019-04-05T15:16:56.260Z,25.37
2019-04-05T15:19:24.806Z,25.20
2019-04-05T15:22:04.815Z,26.57
2019-04-05T15:24:23.564Z,25.33
2019-04-05T15:26:52.180Z,27.77
2019-04-05T15:29:20.713Z,26.80
2019-04-05T15:31:49.286Z,28.20
2019-04-05T15:34:17.761Z,27.23
2019-04-05T15:36:46.328Z,27.60
2019-04-05T15:39:14.872Z,27.63
2019-04-05T15:41:45.176Z,28.03
2019-04-05T15:44:13.668Z,27.87
2019-04-05T15:46:42.309Z,29.20
2019-04-05T15:49:10.780Z,30.00
2019-04-05T15:51:39.352Z,28.40
2019-04-05T15:54:07.824Z,29.47
2019-04-05T15:56:36.396Z,30.23
2019-04-05T15:59:05.353Z,28.53
2019-04-05T16:01:34.255Z,30.30
2019-04-05T16:04:03.477Z,31.43
2019-04-05T16:06:32.073Z,29.53
2019-04-05T16:09:03.996Z,31.73
2019-04-05T16:11:32.721Z,31.03
2019-04-05T16:14:01.264Z,32.07
2019-04-05T16:16:29.841Z,29.70
2019-04-05T16:18:58.401Z,31.93
2019-04-05T16:21:26.985Z,31.27
2019-04-05T16:23:55.593Z,31.90
2019-04-05T16:26:24.069Z,32.17
2019-04-05T16:28:52.641Z,31.37
2019-04-05T16:31:21.128Z,31.60
2019-04-05T16:33:49.633Z,31.97
2019-04-05T16:36:18.148Z,32.13
2019-04-05T16:38:46.707Z,32.03
2019-04-05T16:41:15.261Z,32.43
2019-04-05T16:43:43.837Z,31.63
2019-04-05T16:46:12.454Z,31.80
2019-04-05T16:48:41.029Z,32.63
2019-04-05T16:51:10.448Z,32.63
2019-04-05T16:53:40.590Z,33.67
2019-04-05T16:56:09.143Z,33.43
2019-04-05T16:58:37.704Z,33.30
2019-04-05T17:01:06.173Z,33.40
2019-04-05T17:03:34.670Z,34.10
2019-04-05T17:06:03.218Z,34.20
2019-04-05T17:08:31.709Z,39.77
2019-04-05T17:11:00.184Z,37.03
2019-04-05T17:13:28.706Z,36.43
2019-04-05T17:15:57.234Z,36.23
2019-04-05T17:18:25.877Z,34.57
2019-04-05T17:20:54.357Z,33.73
2019-04-05T17:23:22.945Z,35.27
2019-04-05T17:25:51.418Z,33.83
2019-04-05T17:28:20.000Z,36.37
2019-04-05T17:30:48.556Z,35.00
2019-04-05T17:33:17.048Z,35.00
2019-04-05T17:35:45.596Z,35.17
2019-04-05T17:38:14.092Z,35.87
2019-04-05T17:40:42.578Z,36.83
2019-04-05T17:43:11.117Z,35.87
2019-04-05T17:45:39.633Z,35.90
2019-04-05T17:48:08.178Z,33.40
2019-04-05T17:50:36.896Z,33.07
2019-04-05T17:53:12.638Z,36.67
2019-04-05T17:55:35.729Z,34.13
2019-04-05T17:58:05.928Z,36.13
2019-04-05T18:00:34.580Z,35.67
2019-04-05T18:03:03.984Z,36.87
2019-04-05T18:05:33.061Z,35.60
2019-04-05T18:08:01.540Z,36.77
2019-04-05T18:10:30.041Z,33.70
2019-04-05T18:12:58.530Z,35.10
2019-04-05T18:15:27.167Z,34.83
2019-04-05T18:17:56.012Z,36.93
2019-04-05T18:20:24.605Z,37.73
2019-04-05T18:22:53.097Z,36.40
2019-04-05T18:25:21.659Z,35.33
2019-04-05T18:27:50.215Z,35.13
2019-04-05T18:30:18.848Z,37.03
2019-04-05T18:32:47.384Z,37.23
2019-04-05T18:35:15.981Z,36.60
2019-04-05T18:37:44.572Z,38.33
2019-04-05T18:40:13.292Z,37.73
2019-04-05T18:42:41.804Z,35.67
2019-04-05T18:45:10.721Z,36.73
2019-04-05T18:47:40.697Z,35.43
2019-04-05T18:50:09.429Z,36.80
2019-04-05T18:52:37.908Z,36.37
2019-04-05T18:55:08.244Z,35.70
2019-04-05T18:57:36.789Z,34.30
2019-04-05T19:00:06.959Z,35.43
2019-04-05T19:02:35.736Z,36.67
2019-04-05T19:05:05.768Z,38.77
2019-04-05T19:07:38.109Z,37.67
2019-04-05T19:10:11.356Z,37.03
2019-04-05T19:12:42.140Z,36.70
2019-04-05T19:15:11.800Z,36.60
2019-04-05T19:17:40.458Z,37.97
2019-04-05T19:20:08.999Z,37.90
2019-04-05T19:22:37.517Z,35.43
2019-04-05T19:25:07.317Z,35.93
2019-04-05T19:27:35.965Z,35.03
2019-04-05T19:50:09.392Z,33.47
2019-04-05T19:52:37.892Z,32.33
2019-04-05T19:55:07.464Z,32.17
2019-04-05T19:57:35.960Z,32.67
2019-04-05T20:00:07.039Z,31.77
2019-04-05T20:02:35.557Z,31.70
2019-04-05T20:05:06.387Z,29.90
2019-04-05T20:07:34.900Z,29.47
2019-04-05T20:10:03.604Z,29.60
2019-04-05T20:12:32.171Z,28.80
2019-04-05T20:15:00.703Z,28.60
2019-04-05T20:17:29.211Z,29.03
2019-04-05T20:19:57.748Z,28.80
2019-04-05T20:22:26.245Z,28.07
2019-04-05T20:24:54.717Z,27.97
2019-04-05T20:27:23.272Z,29.40
2019-04-05T20:29:51.743Z,28.10
2019-04-05T20:32:20.253Z,28.90
2019-04-05T20:34:48.800Z,28.20
2019-04-05T20:37:17.304Z,29.17
2019-04-05T20:39:45.779Z,28.93
2019-04-05T20:42:14.276Z,28.37
2019-04-05T20:44:42.812Z,31.10
2019-04-05T20:47:11.284Z,28.53
2019-04-05T20:49:39.839Z,27.33
2019-04-05T20:52:08.383Z,28.70
2019-04-05T20:54:36.965Z,30.20
2019-04-05T20:57:05.532Z,29.10
2019-04-05T20:59:34.083Z,28.53
2019-04-05T21:02:02.625Z,28.70
2019-04-05T21:04:31.200Z,31.67
2019-04-05T21:06:59.758Z,29.50
2019-04-05T21:09:28.265Z,29.13
2019-04-05T21:11:56.733Z,30.67
2019-04-05T21:14:25.335Z,30.60
2019-04-05T21:16:55.057Z,29.53
2019-04-05T21:19:23.713Z,28.40
2019-04-05T21:21:52.256Z,30.90
2019-04-05T21:24:20.893Z,30.27
2019-04-05T21:26:49.365Z,29.57
2019-04-05T21:29:17.861Z,30.40
2019-04-05T21:31:46.478Z,30.47
2019-04-05T21:34:15.102Z,29.40
2019-04-05T21:36:43.714Z,30.43
2019-04-05T21:39:12.337Z,29.77
2019-04-05T21:41:40.934Z,28.60
2019-04-05T21:44:12.735Z,29.70
2019-04-05T21:46:41.533Z,28.37
2019-04-05T21:49:10.127Z,30.90
2019-04-05T21:51:38.754Z,28.77
2019-04-05T21:54:07.439Z,28.27
2019-04-05T21:56:36.069Z,28.10
2019-04-05T21:59:04.754Z,27.60
2019-04-05T22:01:33.369Z,26.10
2019-04-05T22:04:01.933Z,26.87
2019-04-05T22:06:30.405Z,26.97
2019-04-05T22:08:59.013Z,26.60
2019-04-05T22:11:27.937Z,26.97
2019-04-05T22:13:56.521Z,26.17
2019-04-05T22:16:25.058Z,28.97
2019-04-05T22:18:53.600Z,28.83
2019-04-05T22:21:22.193Z,29.20
2019-04-05T22:23:50.717Z,29.47
2019-04-05T22:26:19.294Z,30.00
2019-04-05T22:28:47.836Z,29.77
2019-04-05T22:31:16.336Z,28.13
2019-04-05T22:33:44.887Z,30.70
2019-04-05T22:36:13.518Z,31.57
2019-04-05T22:38:41.980Z,32.83
2019-04-05T22:41:10.485Z,32.67
2019-04-05T22:43:39.025Z,30.77
2019-04-05T22:46:07.541Z,31.50
2019-04-05T22:48:36.020Z,30.67
2019-04-05T22:51:04.667Z,31.03
2019-04-05T22:53:33.204Z,34.03
2019-04-05T22:56:01.718Z,34.83
2019-04-05T22:58:30.261Z,34.60
2019-04-05T23:00:58.757Z,32.33
2019-04-05T23:03:27.261Z,27.73
2019-04-05T23:05:55.909Z,29.37
2019-04-05T23:08:24.478Z,29.40
2019-04-05T23:10:53.083Z,33.47
2019-04-05T23:13:21.638Z,31.87
2019-04-05T23:15:50.237Z,30.73
2019-04-05T23:18:18.746Z,31.83
2019-04-05T23:20:47.302Z,29.80
2019-04-05T23:23:15.852Z,29.60
2019-04-05T23:25:44.416Z,30.70
2019-04-05T23:28:12.888Z,32.17
2019-04-05T23:30:41.392Z,33.73
2019-04-05T23:33:09.872Z,33.23
2019-04-05T23:35:38.458Z,31.37
2019-04-05T23:38:06.980Z,32.37
2019-04-05T23:40:35.593Z,33.27
2019-04-05T23:43:04.313Z,31.70
2019-04-05T23:45:33.093Z,32.53
2019-04-05T23:48:01.647Z,33.03
2019-04-05T23:50:30.269Z,33.00
2019-04-05T23:52:58.744Z,33.00
2019-04-05T23:55:33.104Z,33.27
2019-04-05T23:57:59.563Z,33.60
